Time;durP1;ratioP1;P1;durP2;ratioP2;P2;SDS_P1;SDS_P2;PMS_P1;PMS_P2;Temp;Humidity;BMP_temperature;BMP_pressure;BME280_temperature;BME280_humidity;BME280_pressure;Samples;Min_cycle;Max_cycle;Signal;HPM_P1;HPM_P2
2021/01/08 00:00:58;;;;;;;3.83;3.40;;;1.10;99.90;;;;;;5073532;28;20254;-65
2021/01/08 00:03:23;;;;;;;5.30;4.80;;;1.10;99.90;;;;;;5073128;28;20169;-65
2021/01/08 00:05:49;;;;;;;4.20;3.90;;;1.10;99.90;;;;;;5073384;28;20954;-65
2021/01/08 00:08:15;;;;;;;5.10;4.63;;;1.00;99.90;;;;;;5072916;28;20713;-65
2021/01/08 00:10:40;;;;;;;4.67;4.17;;;1.00;99.90;;;;;;5073185;28;20171;-66
2021/01/08 00:13:06;;;;;;;5.17;4.77;;;1.00;99.90;;;;;;5073254;28;20232;-65
2021/01/08 00:15:31;;;;;;;3.87;3.57;;;1.00;99.90;;;;;;5072934;28;20187;-65
2021/01/08 00:17:57;;;;;;;5.00;4.50;;;1.00;99.90;;;;;;5072720;28;20197;-65
2021/01/08 00:20:22;;;;;;;5.07;4.63;;;0.90;99.90;;;;;;5072945;28;20254;-66
2021/01/08 00:22:48;;;;;;;5.63;5.23;;;0.90;99.90;;;;;;5073126;28;20167;-65
2021/01/08 00:25:14;;;;;;;4.17;3.77;;;0.90;99.90;;;;;;5072915;28;20709;-65
2021/01/08 00:27:40;;;;;;;4.30;3.90;;;1.00;99.90;;;;;;5071262;28;20483;-65
2021/01/08 00:30:07;;;;;;;8.07;7.43;;;0.90;99.90;;;;;;5072791;28;20170;-66
2021/01/08 00:32:32;;;;;;;5.73;5.20;;;0.80;99.90;;;;;;5072643;28;20159;-65
2021/01/08 00:34:58;;;;;;;5.00;4.60;;;1.00;99.90;;;;;;5072790;28;20496;-65
2021/01/08 00:37:24;;;;;;;5.70;5.20;;;0.90;99.90;;;;;;5072310;28;20172;-65
2021/01/08 00:39:50;;;;;;;5.15;4.60;;;1.00;99.90;;;;;;5072677;28;20163;-65
2021/01/08 00:42:16;;;;;;;4.30;4.00;;;1.00;99.90;;;;;;5072484;28;20233;-65
2021/01/08 00:44:43;;;;;;;4.20;3.80;;;1.00;99.90;;;;;;5073048;28;20439;-65
2021/01/08 00:47:08;;;;;;;4.43;4.03;;;0.90;99.90;;;;;;5072068;28;20205;-65
2021/01/08 00:49:34;;;;;;;4.77;4.37;;;0.90;99.90;;;;;;5072466;28;20397;-65
2021/01/08 00:52:00;;;;;;;5.47;4.87;;;0.90;99.90;;;;;;5072226;28;20249;-65
2021/01/08 00:54:25;;;;;;;8.47;7.67;;;0.90;99.90;;;;;;5072132;28;20168;-66
2021/01/08 00:56:54;;;;;;;4.50;4.10;;;0.90;99.90;;;;;;5071948;28;20599;-65
2021/01/08 00:59:20;;;;;;;5.38;4.78;;;0.90;99.90;;;;;;5072170;28;20253;-66
2021/01/08 01:01:45;;;;;;;5.37;4.87;;;0.90;99.90;;;;;;5072291;28;20232;-66
2021/01/08 01:04:11;;;;;;;5.20;4.80;;;1.00;99.90;;;;;;5072102;28;20584;-65
2021/01/08 01:06:37;;;;;;;5.70;5.20;;;1.00;99.90;;;;;;5071862;28;20285;-65
2021/01/08 01:09:03;;;;;;;5.47;4.97;;;1.00;99.90;;;;;;5072095;28;20650;-66
2021/01/08 01:11:30;;;;;;;5.05;4.65;;;1.00;99.90;;;;;;5071935;28;20182;-65
2021/01/08 01:13:57;;;;;;;6.00;5.40;;;0.90;99.90;;;;;;5072101;28;20166;-65
2021/01/08 01:16:24;;;;;;;7.30;6.70;;;0.90;99.90;;;;;;5071764;28;20422;-65
2021/01/08 01:18:52;;;;;;;5.65;5.15;;;1.00;99.90;;;;;;5071822;28;20170;-65
2021/01/08 01:21:18;;;;;;;6.53;5.93;;;0.90;99.90;;;;;;5071856;28;20169;-65
2021/01/08 01:23:44;;;;;;;6.73;6.10;;;0.90;99.90;;;;;;5072023;28;20174;-65
2021/01/08 01:26:10;;;;;;;7.50;6.77;;;0.90;99.90;;;;;;5071580;28;20218;-66
2021/01/08 01:28:36;;;;;;;6.93;6.30;;;0.90;99.90;;;;;;5071442;28;20170;-65
2021/01/08 01:31:02;;;;;;;7.35;6.70;;;0.90;99.90;;;;;;5070560;28;20409;-66
2021/01/08 01:33:29;;;;;;;9.10;7.75;;;1.00;99.90;;;;;;5071790;28;20166;-65
2021/01/08 01:35:55;;;;;;;7.05;6.45;;;0.90;99.90;;;;;;5071825;28;20181;-65
2021/01/08 01:38:21;;;;;;;9.85;7.53;;;0.90;99.90;;;;;;5070007;28;20173;-66
2021/01/08 01:40:48;;;;;;;12.07;7.47;;;0.90;99.90;;;;;;5071745;28;20201;-66
2021/01/08 01:43:14;;;;;;;9.00;8.10;;;0.90;99.90;;;;;;5071676;28;20415;-65
2021/01/08 01:45:40;;;;;;;7.70;7.00;;;0.90;99.90;;;;;;5071737;28;20730;-66
2021/01/08 01:48:06;;;;;;;8.20;7.50;;;1.00;99.90;;;;;;5071175;28;20276;-65
2021/01/08 01:50:32;;;;;;;8.13;7.40;;;0.90;99.90;;;;;;5071782;28;20252;-65
2021/01/08 01:52:57;;;;;;;7.97;7.27;;;0.90;99.90;;;;;;5071849;28;20267;-66
2021/01/08 01:55:23;;;;;;;8.90;8.10;;;1.00;99.90;;;;;;5071290;28;20189;-66
2021/01/08 01:57:50;;;;;;;9.63;8.73;;;0.90;99.90;;;;;;5071264;28;20186;-66
2021/01/08 02:00:17;;;;;;;9.07;8.20;;;0.90;99.90;;;;;;5071464;28;20719;-65
2021/01/08 02:02:45;;;;;;;8.48;7.63;;;1.00;99.90;;;;;;5071667;28;20542;-65
2021/01/08 02:05:14;;;;;;;9.73;8.73;;;0.90;99.90;;;;;;5073151;28;20211;-65
2021/01/08 02:07:48;;;;;;;8.10;7.40;;;0.80;99.90;;;;;;5075301;28;20186;-65
2021/01/08 02:10:15;;;;;;;8.05;7.35;;;0.80;99.90;;;;;;5075535;28;20413;-65
2021/01/08 02:12:43;;;;;;;8.75;7.95;;;0.80;99.90;;;;;;5075692;28;20177;-65
2021/01/08 02:15:09;;;;;;;8.23;7.43;;;0.90;99.90;;;;;;5075269;28;20187;-65
2021/01/08 02:17:35;;;;;;;7.85;7.07;;;0.80;99.90;;;;;;5075304;28;20758;-66
2021/01/08 02:20:06;;;;;;;8.67;7.80;;;0.70;99.90;;;;;;5075305;28;20179;-65
2021/01/08 02:22:59;;;;;;;7.43;6.82;;;0.80;99.90;;;;;;5075304;28;20419;-65
2021/01/08 02:25:28;;;;;;;7.90;7.15;;;0.80;99.90;;;;;;5075145;28;20234;-66
2021/01/08 02:28:21;;;;;;;7.78;7.07;;;0.80;99.90;;;;;;5074905;28;20290;-65
2021/01/08 02:30:48;;;;;;;8.63;7.82;;;0.80;99.90;;;;;;5074977;28;20165;-65
2021/01/08 02:33:14;;;;;;;8.32;7.57;;;0.80;99.90;;;;;;5075140;28;20192;-66
2021/01/08 02:35:41;;;;;;;8.13;7.30;;;0.70;99.90;;;;;;5074863;28;20182;-66
2021/01/08 02:38:10;;;;;;;8.30;7.50;;;0.80;99.90;;;;;;5074678;28;20167;-66
2021/01/08 02:40:36;;;;;;;8.68;7.78;;;0.80;99.90;;;;;;5074910;28;20173;-66
2021/01/08 02:43:03;;;;;;;7.73;7.07;;;0.80;99.90;;;;;;5074974;28;20686;-65
2021/01/08 02:45:29;;;;;;;7.63;7.00;;;0.90;99.90;;;;;;5074534;28;20181;-66
2021/01/08 02:47:55;;;;;;;7.70;7.07;;;0.90;99.90;;;;;;5074520;28;20716;-66
2021/01/08 02:50:20;;;;;;;9.03;7.03;;;0.90;99.90;;;;;;5074798;28;20168;-66
2021/01/08 02:52:51;;;;;;;6.80;6.30;;;0.90;99.90;;;;;;5074769;28;20162;-66
2021/01/08 02:55:22;;;;;;;8.32;7.60;;;0.90;99.90;;;;;;5074739;28;20185;-66
2021/01/08 02:57:48;;;;;;;6.57;6.07;;;1.00;99.90;;;;;;5073287;28;20194;-65
2021/01/08 03:00:15;;;;;;;6.05;5.55;;;1.00;99.90;;;;;;5073589;28;20169;-66
2021/01/08 03:02:41;;;;;;;7.93;7.22;;;1.00;99.90;;;;;;5073271;28;20248;-66
2021/01/08 03:05:07;;;;;;;5.80;5.40;;;1.00;99.90;;;;;;5073434;28;20166;-66
2021/01/08 03:07:33;;;;;;;5.90;5.40;;;1.00;99.90;;;;;;5072846;28;20249;-66
2021/01/08 03:10:00;;;;;;;6.47;5.87;;;1.00;99.90;;;;;;5073466;28;20199;-65
2021/01/08 03:12:32;;;;;;;6.25;5.70;;;1.00;99.90;;;;;;5073053;28;20280;-66
2021/01/08 03:15:01;;;;;;;6.20;5.63;;;0.90;99.90;;;;;;5073168;28;20638;-66
2021/01/08 03:17:26;;;;;;;5.60;5.20;;;0.90;99.90;;;;;;5072663;28;20544;-66
2021/01/08 03:19:52;;;;;;;7.77;7.10;;;0.90;99.90;;;;;;5073163;28;20421;-65
2021/01/08 03:22:17;;;;;;;6.80;6.37;;;0.90;99.90;;;;;;5073056;28;20176;-66
2021/01/08 03:24:43;;;;;;;7.17;6.60;;;0.90;99.90;;;;;;5073168;28;20186;-66
2021/01/08 03:27:08;;;;;;;7.10;6.70;;;0.90;99.90;;;;;;5072424;28;20617;-66
2021/01/08 03:29:34;;;;;;;6.33;5.83;;;0.90;99.90;;;;;;5073027;28;20179;-66
2021/01/08 03:31:59;;;;;;;6.03;5.60;;;0.80;99.90;;;;;;5072923;28;20177;-66
2021/01/08 03:34:25;;;;;;;6.13;5.70;;;0.90;99.90;;;;;;5073031;28;20174;-65
2021/01/08 03:36:50;;;;;;;5.83;5.33;;;0.90;99.90;;;;;;5072630;28;20193;-65
2021/01/08 03:39:16;;;;;;;6.90;6.40;;;0.90;99.90;;;;;;5072828;28;20212;-66
2021/01/08 03:41:41;;;;;;;6.60;6.10;;;0.90;99.90;;;;;;5072841;28;20540;-66
2021/01/08 03:44:07;;;;;;;6.57;5.97;;;0.90;99.90;;;;;;5072740;28;20641;-66
2021/01/08 03:46:36;;;;;;;7.20;6.53;;;0.80;99.90;;;;;;5072485;28;20581;-66
2021/01/08 03:49:05;;;;;;;6.57;6.07;;;0.90;99.90;;;;;;5071625;28;20220;-66
2021/01/08 03:51:31;;;;;;;6.90;6.20;;;0.80;99.90;;;;;;5071802;28;20398;-66
2021/01/08 03:53:57;;;;;;;6.13;5.63;;;0.90;99.90;;;;;;5072509;28;20893;-66
2021/01/08 03:56:22;;;;;;;7.10;6.40;;;0.80;99.90;;;;;;5053118;28;553088;-66
2021/01/08 03:58:48;;;;;;;6.57;6.00;;;0.90;99.90;;;;;;5073164;28;20616;-66
2021/01/08 04:01:13;;;;;;;6.60;6.00;;;0.90;99.90;;;;;;5073628;28;20185;-66
2021/01/08 04:03:39;;;;;;;6.73;6.13;;;0.90;99.90;;;;;;5073386;28;20205;-65
2021/01/08 04:06:05;;;;;;;6.57;6.07;;;0.90;99.90;;;;;;5073408;28;20198;-65
2021/01/08 04:08:30;;;;;;;7.33;6.63;;;0.90;99.90;;;;;;5072852;28;20233;-66
2021/01/08 04:10:56;;;;;;;6.07;5.67;;;0.90;99.90;;;;;;5073304;28;20401;-66
2021/01/08 04:13:21;;;;;;;6.67;6.07;;;0.90;99.90;;;;;;5073172;28;20169;-65
2021/01/08 04:15:47;;;;;;;7.97;7.17;;;0.90;99.90;;;;;;5073186;28;20195;-66
2021/01/08 04:18:12;;;;;;;7.80;7.00;;;0.80;99.90;;;;;;5072692;28;20257;-66
2021/01/08 04:20:38;;;;;;;7.10;6.50;;;0.90;99.90;;;;;;5073275;28;20174;-65
2021/01/08 04:23:03;;;;;;;7.50;6.80;;;0.80;99.90;;;;;;5073138;28;20167;-66
2021/01/08 04:25:29;;;;;;;7.30;6.70;;;0.80;99.90;;;;;;5072747;28;20706;-66
2021/01/08 04:27:54;;;;;;;5.93;5.50;;;0.80;99.90;;;;;;5071858;28;20676;-66
2021/01/08 04:30:23;;;;;;;6.77;6.17;;;0.80;99.90;;;;;;5072826;28;20181;-65
2021/01/08 04:32:49;;;;;;;7.30;6.60;;;0.80;99.90;;;;;;5072950;28;20658;-65
2021/01/08 04:35:14;;;;;;;7.37;6.77;;;0.90;99.90;;;;;;5072671;28;20427;-65
2021/01/08 04:37:40;;;;;;;6.03;5.53;;;0.90;99.90;;;;;;5072615;28;20400;-66
2021/01/08 04:40:06;;;;;;;6.87;6.27;;;0.80;99.90;;;;;;5072476;28;20174;-66
2021/01/08 04:42:36;;;;;;;6.10;5.60;;;0.90;99.90;;;;;;5072771;28;20180;-66
2021/01/08 04:45:04;;;;;;;7.10;5.67;;;0.80;99.90;;;;;;5072506;28;20406;-66
2021/01/08 04:47:31;;;;;;;6.53;6.00;;;0.80;99.90;;;;;;5072336;28;20456;-65
2021/01/08 04:49:57;;;;;;;5.53;5.03;;;0.80;99.90;;;;;;5072369;28;20411;-65
2021/01/08 04:52:24;;;;;;;6.70;6.00;;;0.80;99.90;;;;;;5072514;28;20544;-65
2021/01/08 04:54:50;;;;;;;6.35;5.85;;;0.80;99.90;;;;;;5072346;28;20248;-65
2021/01/08 04:57:18;;;;;;;7.23;6.07;;;0.80;99.90;;;;;;5071948;28;20255;-65
2021/01/08 04:59:44;;;;;;;5.60;5.20;;;0.80;99.90;;;;;;5072131;28;20407;-65
2021/01/08 05:02:10;;;;;;;5.80;5.20;;;0.80;99.90;;;;;;5072375;28;20254;-66
2021/01/08 05:04:37;;;;;;;5.27;4.87;;;0.80;99.90;;;;;;5072269;28;20408;-65
2021/01/08 05:07:02;;;;;;;6.70;6.17;;;0.70;99.90;;;;;;5071684;28;20459;-65
2021/01/08 05:09:28;;;;;;;6.77;6.17;;;0.80;99.90;;;;;;5072798;28;20769;-64
2021/01/08 05:11:56;;;;;;;6.07;5.47;;;0.70;99.90;;;;;;5072110;28;20175;-64
2021/01/08 05:14:25;;;;;;;9.57;5.75;;;0.70;99.90;;;;;;5072209;28;20169;-64
2021/01/08 05:16:51;;;;;;;7.97;7.00;;;0.70;99.90;;;;;;5071645;28;20195;-64
2021/01/08 05:19:18;;;;;;;7.00;5.90;;;0.70;99.90;;;;;;5070819;28;20200;-64
2021/01/08 05:21:44;;;;;;;7.03;6.40;;;0.70;99.90;;;;;;5070635;28;20204;-64
2021/01/08 05:24:10;;;;;;;5.47;4.97;;;0.70;99.90;;;;;;5072081;28;20438;-64
2021/01/08 05:26:36;;;;;;;6.57;6.10;;;0.60;99.90;;;;;;5070180;28;20202;-67
2021/01/08 05:29:03;;;;;;;5.35;4.90;;;0.60;99.90;;;;;;5071977;28;20450;-64
2021/01/08 05:31:31;;;;;;;6.73;5.80;;;0.70;99.90;;;;;;5071847;28;20176;-64
2021/01/08 05:33:57;;;;;;;5.20;4.80;;;0.70;99.90;;;;;;5071908;28;20954;-66
2021/01/08 05:36:23;;;;;;;5.97;4.90;;;0.70;99.90;;;;;;5071677;28;20488;-66
2021/01/08 05:38:51;;;;;;;5.63;5.18;;;0.70;99.90;;;;;;5071579;28;20779;-64
2021/01/08 05:41:17;;;;;;;6.22;5.63;;;0.60;99.90;;;;;;5071689;28;20169;-67
2021/01/08 05:43:45;;;;;;;4.30;4.00;;;0.70;99.90;;;;;;5071933;28;20191;-64
2021/01/08 05:46:19;;;;;;;4.20;3.90;;;0.70;99.90;;;;;;5071601;28;20514;-66
2021/01/08 05:48:51;;;;;;;5.28;4.88;;;0.70;99.90;;;;;;5071466;28;20261;-64
2021/01/08 05:51:18;;;;;;;4.70;4.30;;;0.70;99.90;;;;;;5071597;28;20646;-64
2021/01/08 05:53:47;;;;;;;5.23;4.83;;;0.60;99.90;;;;;;5071909;28;20541;-64
2021/01/08 05:56:15;;;;;;;6.13;5.65;;;0.60;99.90;;;;;;5071650;28;20421;-65
2021/01/08 05:58:42;;;;;;;6.60;6.00;;;0.60;99.90;;;;;;5071229;28;20619;-64
2021/01/08 06:01:07;;;;;;;6.10;5.33;;;0.60;99.90;;;;;;5070417;28;20185;-64
2021/01/08 06:03:33;;;;;;;5.27;4.80;;;0.60;99.90;;;;;;5071490;28;20408;-64
2021/01/08 06:06:01;;;;;;;4.93;4.53;;;0.60;99.90;;;;;;5071704;28;20192;-64
2021/01/08 06:08:32;;;;;;;6.60;5.05;;;0.60;99.90;;;;;;5071006;28;20475;-64
2021/01/08 06:11:00;;;;;;;6.07;5.47;;;0.60;99.90;;;;;;5071582;28;20166;-64
2021/01/08 06:13:35;;;;;;;5.70;5.20;;;0.60;99.90;;;;;;5071360;28;20823;-66
2021/01/08 06:16:02;;;;;;;6.38;5.78;;;0.60;99.90;;;;;;5071487;28;20411;-64
2021/01/08 06:18:29;;;;;;;7.55;6.90;;;0.60;99.90;;;;;;5070952;28;20169;-64
2021/01/08 06:21:07;;;;;;;6.00;5.50;;;0.60;99.90;;;;;;5071538;28;20211;-64
2021/01/08 06:23:43;;;;;;;6.27;5.67;;;0.60;99.90;;;;;;5071339;28;20463;-64
2021/01/08 06:26:14;;;;;;;5.73;5.23;;;0.60;99.90;;;;;;5071362;28;20428;-64
2021/01/08 06:28:42;;;;;;;6.15;5.55;;;0.70;99.90;;;;;;5070932;28;21025;-67
2021/01/08 06:31:34;;;;;;;6.85;6.25;;;0.60;99.90;;;;;;5071413;28;20162;-67
2021/01/08 06:34:01;;;;;;;5.15;4.63;;;0.60;99.90;;;;;;5071118;28;20173;-64
2021/01/08 06:36:31;;;;;;;6.30;5.50;;;0.60;99.90;;;;;;5071224;28;20192;-64
2021/01/08 06:39:03;;;;;;;5.90;5.30;;;0.60;99.90;;;;;;5070973;28;20397;-64
2021/01/08 06:41:28;;;;;;;7.38;6.22;;;0.60;99.90;;;;;;5071326;28;20161;-64
2021/01/08 06:44:05;;;;;;;9.10;6.10;;;0.50;99.90;;;;;;5071245;28;20170;-67
2021/01/08 06:46:42;;;;;;;7.32;5.20;;;0.50;99.90;;;;;;5070884;28;20181;-67
2021/01/08 06:49:12;;;;;;;6.90;6.18;;;0.40;99.90;;;;;;5070945;28;20220;-64
2021/01/08 06:51:39;;;;;;;7.55;5.63;;;0.40;99.90;;;;;;5073498;28;20163;-64
2021/01/08 06:54:05;;;;;;;6.85;6.10;;;0.50;99.90;;;;;;5074701;28;20170;-66
2021/01/08 06:56:38;;;;;;;5.88;5.45;;;0.50;99.90;;;;;;5074468;28;20192;-67
2021/01/08 06:59:06;;;;;;;7.00;6.38;;;0.50;99.90;;;;;;5074545;28;20157;-64
2021/01/08 07:01:34;;;;;;;7.15;6.45;;;0.40;99.90;;;;;;5074647;28;20165;-64
2021/01/08 07:04:01;;;;;;;6.65;5.70;;;0.40;99.90;;;;;;5074503;28;20188;-64
2021/01/08 07:06:27;;;;;;;5.95;5.30;;;0.40;99.90;;;;;;5074398;28;20186;-63
2021/01/08 07:08:53;;;;;;;6.90;5.28;;;0.50;99.90;;;;;;5077434;28;20528;-65
2021/01/08 07:11:25;;;;;;;6.40;5.20;;;0.50;99.90;;;;;;5074308;28;20234;-64
2021/01/08 07:14:03;;;;;;;6.07;5.53;;;0.50;99.90;;;;;;5074440;28;20231;-64
2021/01/08 07:16:29;;;;;;;5.65;4.90;;;0.50;99.90;;;;;;5071175;28;20708;-66
2021/01/08 07:19:04;;;;;;;6.63;6.03;;;0.50;99.90;;;;;;5057940;28;20173;-63
2021/01/08 07:21:31;;;;;;;6.80;6.30;;;0.50;99.90;;;;;;5054462;28;20677;-64
2021/01/08 07:23:57;;;;;;;7.00;6.28;;;0.50;99.90;;;;;;5054186;28;20206;-64
2021/01/08 07:26:26;;;;;;;5.93;5.07;;;0.50;99.90;;;;;;5054190;28;20178;-64
2021/01/08 07:28:54;;;;;;;6.77;5.10;;;0.50;99.90;;;;;;5053789;28;20166;-64
2021/01/08 07:31:33;;;;;;;5.80;5.30;;;0.50;99.90;;;;;;5054184;28;20809;-67
2021/01/08 07:34:03;;;;;;;6.80;6.20;;;0.50;99.90;;;;;;5053978;28;20976;-64
2021/01/08 07:36:31;;;;;;;7.15;6.45;;;0.50;99.90;;;;;;5053774;28;20189;-70
2021/01/08 07:38:56;;;;;;;6.72;6.00;;;0.50;99.90;;;;;;5053848;28;20513;-64
2021/01/08 07:41:39;;;;;;;7.10;6.47;;;0.60;99.90;;;;;;5053772;28;20254;-64
2021/01/08 07:44:32;;;;;;;6.10;5.50;;;0.60;99.90;;;;;;5053967;28;20175;-64
2021/01/08 07:47:18;;;;;;;8.10;6.30;;;0.60;99.90;;;;;;5053517;28;20259;-64
2021/01/08 07:49:43;;;;;;;6.13;5.63;;;0.70;99.90;;;;;;5053443;28;20231;-64
2021/01/08 07:52:09;;;;;;;7.33;6.63;;;0.70;99.90;;;;;;5053800;28;20169;-64
2021/01/08 07:54:52;;;;;;;8.00;7.20;;;0.70;99.90;;;;;;5053626;28;20181;-64
2021/01/08 07:57:18;;;;;;;7.70;7.00;;;0.60;99.90;;;;;;5053159;28;20280;-66
2021/01/08 07:59:44;;;;;;;7.03;6.33;;;0.60;99.90;;;;;;5053463;28;20810;-64
2021/01/08 08:02:09;;;;;;;7.17;6.47;;;0.70;99.90;;;;;;5052302;28;20621;-64
2021/01/08 08:04:37;;;;;;;6.60;5.93;;;0.70;99.90;;;;;;5053506;28;20197;-64
2021/01/08 08:07:03;;;;;;;8.48;7.63;;;0.60;99.90;;;;;;5052969;28;20678;-66
2021/01/08 08:09:29;;;;;;;9.07;7.47;;;0.70;99.90;;;;;;5053397;28;20258;-64
2021/01/08 08:11:54;;;;;;;7.47;6.77;;;0.70;99.90;;;;;;5053295;28;20236;-67
2021/01/08 08:14:21;;;;;;;8.20;7.40;;;0.80;99.90;;;;;;5053406;28;20177;-65
2021/01/08 08:16:49;;;;;;;8.60;7.00;;;0.80;99.90;;;;;;5052767;28;20194;-64
2021/01/08 08:19:15;;;;;;;7.80;7.17;;;0.80;99.90;;;;;;5053301;28;20728;-64
2021/01/08 08:21:50;;;;;;;8.67;7.83;;;0.80;99.90;;;;;;5053061;28;20788;-65
2021/01/08 08:24:17;;;;;;;9.90;8.20;;;0.80;99.90;;;;;;5053805;28;20398;-64
2021/01/08 08:26:44;;;;;;;8.80;7.90;;;0.80;99.90;;;;;;5052478;28;20453;-64
2021/01/08 08:29:15;;;;;;;9.20;7.23;;;0.90;99.90;;;;;;5053007;28;20406;-64
2021/01/08 08:31:46;;;;;;;8.40;7.60;;;0.90;99.90;;;;;;5052872;28;20919;-66
2021/01/08 08:34:14;;;;;;;9.03;8.17;;;1.00;99.90;;;;;;5052989;28;20850;-64
2021/01/08 08:36:41;;;;;;;8.20;7.40;;;1.00;99.90;;;;;;5052383;28;20784;-64
2021/01/08 08:39:13;;;;;;;13.93;10.27;;;1.00;99.90;;;;;;5052827;28;20411;-64
2021/01/08 08:41:48;;;;;;;21.63;9.67;;;1.00;99.90;;;;;;5052707;28;20195;-67
2021/01/08 08:44:18;;;;;;;21.05;10.77;;;1.00;99.90;;;;;;5052820;28;20814;-64
2021/01/08 08:46:49;;;;;;;8.97;8.07;;;1.10;99.90;;;;;;5052287;28;20201;-64
2021/01/08 08:49:19;;;;;;;24.13;12.03;;;1.10;99.90;;;;;;5052565;28;20456;-64
2021/01/08 08:51:47;;;;;;;9.23;7.97;;;1.10;99.90;;;;;;5052664;28;20939;-64
2021/01/08 08:54:13;;;;;;;10.47;8.40;;;1.00;99.90;;;;;;5052418;28;20398;-64
2021/01/08 08:56:40;;;;;;;13.47;8.67;;;1.10;99.90;;;;;;5052136;28;20449;-64
2021/01/08 08:59:06;;;;;;;21.63;12.17;;;1.20;99.90;;;;;;5052271;28;20490;-64
2021/01/08 09:01:43;;;;;;;9.60;8.10;;;1.20;99.90;;;;;;5052471;28;20957;-64
2021/01/08 09:04:09;;;;;;;22.67;15.20;;;1.20;99.90;;;;;;5052295;28;20210;-64
2021/01/08 09:06:41;;;;;;;10.27;9.03;;;1.20;99.90;;;;;;5051981;28;20945;-64
2021/01/08 09:09:15;;;;;;;10.60;8.27;;;1.20;99.90;;;;;;5052115;28;20781;-65
2021/01/08 09:12:06;;;;;;;11.13;8.53;;;1.30;99.90;;;;;;5052340;28;20457;-64
2021/01/08 09:14:36;;;;;;;9.10;6.80;;;1.30;99.90;;;;;;5051791;28;20413;-67
2021/01/08 09:17:08;;;;;;;11.10;7.90;;;1.40;99.90;;;;;;5051814;28;20765;-64
2021/01/08 09:20:01;;;;;;;61.23;28.80;;;1.40;99.90;;;;;;5051943;28;20447;-64
2021/01/08 09:22:30;;;;;;;38.87;20.73;;;1.40;99.90;;;;;;5051786;28;20487;-64
2021/01/08 09:24:59;;;;;;;20.30;13.43;;;1.40;99.90;;;;;;5051880;28;20406;-64
2021/01/08 09:27:25;;;;;;;15.80;11.70;;;1.50;99.90;;;;;;5051629;28;20504;-64
2021/01/08 09:29:51;;;;;;;9.73;8.80;;;1.50;99.90;;;;;;5051972;28;20418;-64
2021/01/08 09:32:31;;;;;;;7.70;6.73;;;1.60;99.90;;;;;;5051932;28;20769;-64
2021/01/08 09:35:10;;;;;;;9.10;7.40;;;1.60;99.90;;;;;;5050579;28;20263;-67
2021/01/08 09:37:59;;;;;;;7.67;6.97;;;1.70;99.90;;;;;;5051575;28;20402;-64
2021/01/08 09:40:25;;;;;;;7.07;6.37;;;1.60;99.90;;;;;;5051943;28;20460;-66
2021/01/08 09:42:50;;;;;;;7.63;6.87;;;1.50;99.90;;;;;;5051711;28;20415;-64
2021/01/08 09:45:19;;;;;;;9.60;8.80;;;1.60;99.90;;;;;;5051831;28;20253;-64
2021/01/08 09:47:45;;;;;;;7.20;6.60;;;1.60;99.90;;;;;;5051252;28;20819;-64
2021/01/08 09:50:21;;;;;;;8.13;7.33;;;1.60;99.90;;;;;;5050415;28;20402;-67
2021/01/08 09:52:49;;;;;;;8.23;7.43;;;1.60;99.90;;;;;;5051657;28;20198;-64
2021/01/08 09:55:44;;;;;;;8.80;7.87;;;1.60;99.90;;;;;;5051867;28;20531;-64
2021/01/08 09:58:09;;;;;;;7.07;6.47;;;1.60;99.90;;;;;;5050496;28;20529;-64
2021/01/08 10:00:36;;;;;;;8.30;6.93;;;1.60;99.90;;;;;;5051646;28;20950;-64
2021/01/08 10:03:03;;;;;;;6.87;6.27;;;1.60;99.90;;;;;;5051459;28;20196;-64
2021/01/08 10:05:36;;;;;;;8.07;7.03;;;1.60;99.90;;;;;;5051621;28;20426;-64
2021/01/08 10:08:03;;;;;;;10.77;9.63;;;1.60;99.90;;;;;;5051101;28;20500;-67
2021/01/08 10:10:29;;;;;;;9.60;8.30;;;1.60;99.90;;;;;;5051634;28;20410;-64
2021/01/08 10:12:56;;;;;;;7.97;7.13;;;1.70;99.90;;;;;;5051596;28;21169;-64
2021/01/08 10:15:43;;;;;;;8.33;7.50;;;1.70;99.90;;;;;;5051248;28;20194;-64
2021/01/08 10:18:31;;;;;;;6.90;6.20;;;1.70;99.90;;;;;;5051105;28;20464;-64
2021/01/08 10:21:09;;;;;;;7.77;6.97;;;1.70;99.90;;;;;;5051462;28;20419;-64
2021/01/08 10:23:39;;;;;;;12.17;9.90;;;1.80;99.90;;;;;;5051479;28;20434;-65
2021/01/08 10:26:18;;;;;;;9.60;8.47;;;1.90;99.90;;;;;;5052782;28;20487;-64
2021/01/08 10:28:54;;;;;;;7.03;6.40;;;1.80;99.90;;;;;;5063207;28;20490;-67
2021/01/08 10:31:21;;;;;;;7.50;6.80;;;1.90;99.90;;;;;;5075130;28;20396;-67
2021/01/08 10:33:47;;;;;;;7.23;6.53;;;1.90;99.90;;;;;;5075300;28;20445;-64
2021/01/08 10:36:14;;;;;;;8.53;7.67;;;1.90;99.90;;;;;;5074832;28;20445;-64
2021/01/08 10:38:40;;;;;;;7.17;6.53;;;1.80;99.90;;;;;;5074811;28;20413;-64
2021/01/08 10:41:06;;;;;;;7.03;6.33;;;1.80;99.90;;;;;;5074842;28;20512;-67
2021/01/08 10:43:34;;;;;;;8.53;7.80;;;1.90;99.90;;;;;;5075037;28;20961;-64
2021/01/08 10:46:02;;;;;;;9.60;7.47;;;2.00;99.90;;;;;;5074899;28;20191;-64
2021/01/08 10:48:29;;;;;;;6.97;6.27;;;2.10;99.90;;;;;;5074340;28;20539;-64
2021/01/08 10:50:54;;;;;;;7.77;7.00;;;2.30;99.90;;;;;;5074824;28;20874;-66
2021/01/08 10:53:20;;;;;;;8.07;7.37;;;2.30;99.90;;;;;;5074711;28;20409;-64
2021/01/08 10:55:47;;;;;;;7.77;6.87;;;2.40;99.90;;;;;;5074758;28;20187;-64
2021/01/08 10:58:15;;;;;;;6.93;6.33;;;2.40;99.90;;;;;;5074196;28;20183;-65
2021/01/08 11:00:42;;;;;;;7.07;6.37;;;2.40;99.90;;;;;;5074764;28;20405;-66
2021/01/08 11:03:07;;;;;;;6.93;6.27;;;2.40;99.90;;;;;;5074442;28;20437;-64
2021/01/08 11:05:36;;;;;;;6.50;5.90;;;2.50;99.90;;;;;;5074511;28;20471;-66
2021/01/08 11:08:01;;;;;;;7.40;6.70;;;2.50;99.90;;;;;;5072941;28;20251;-64
2021/01/08 11:10:27;;;;;;;6.97;6.37;;;2.40;99.90;;;;;;5074429;28;20405;-65
2021/01/08 11:12:52;;;;;;;7.60;6.90;;;2.50;99.90;;;;;;5074354;28;20221;-64
2021/01/08 11:15:18;;;;;;;8.90;8.07;;;2.60;99.90;;;;;;5074217;28;20187;-64
2021/01/08 11:17:43;;;;;;;7.80;7.20;;;2.60;99.90;;;;;;5074004;28;20206;-65
2021/01/08 11:20:12;;;;;;;10.43;9.37;;;2.60;99.90;;;;;;5074101;28;20254;-66
2021/01/08 11:22:38;;;;;;;12.77;9.23;;;2.60;99.90;;;;;;5074570;28;20245;-64
2021/01/08 11:25:04;;;;;;;7.50;6.80;;;2.60;99.90;;;;;;5074209;28;20488;-65
2021/01/08 11:27:30;;;;;;;12.40;9.70;;;2.70;99.90;;;;;;5073713;28;20206;-65
2021/01/08 11:29:55;;;;;;;18.60;13.43;;;2.60;99.90;;;;;;5074129;28;20455;-67
2021/01/08 11:32:21;;;;;;;11.30;8.50;;;2.60;99.90;;;;;;5073834;28;20262;-64
2021/01/08 11:34:46;;;;;;;29.07;17.60;;;2.70;99.90;;;;;;5074118;28;20171;-65
2021/01/08 11:37:12;;;;;;;17.73;12.57;;;2.70;99.90;;;;;;5073249;28;20199;-64
2021/01/08 11:39:37;;;;;;;8.23;7.40;;;2.80;99.90;;;;;;5073774;28;20195;-66
2021/01/08 11:42:03;;;;;;;14.27;9.50;;;2.70;99.90;;;;;;5073863;28;20171;-65
2021/01/08 11:44:29;;;;;;;8.23;7.30;;;2.70;99.90;;;;;;5073786;28;20211;-64
2021/01/08 11:46:54;;;;;;;12.57;9.70;;;2.70;99.90;;;;;;5073325;28;20202;-65
2021/01/08 11:49:20;;;;;;;36.10;26.07;;;2.80;99.90;;;;;;5073519;28;20636;-65
2021/01/08 11:51:46;;;;;;;14.40;11.60;;;2.90;99.90;;;;;;5073808;28;20236;-65
2021/01/08 11:54:11;;;;;;;8.43;7.60;;;2.90;99.90;;;;;;5073605;28;20663;-64
2021/01/08 11:56:37;;;;;;;9.77;8.87;;;2.90;99.90;;;;;;5056181;28;20466;-65
2021/01/08 11:59:03;;;;;;;7.77;6.97;;;2.80;99.90;;;;;;5053347;28;20167;-65
2021/01/08 12:01:30;;;;;;;7.13;6.50;;;2.80;99.90;;;;;;5062830;28;20500;-65
2021/01/08 12:03:56;;;;;;;7.37;6.87;;;2.90;99.90;;;;;;5073388;28;20447;-65
2021/01/08 12:06:29;;;;;;;7.87;7.17;;;3.00;99.90;;;;;;5073343;28;20428;-65
2021/01/08 12:08:59;;;;;;;6.50;5.90;;;3.00;99.90;;;;;;5073211;28;20413;-65
2021/01/08 12:11:25;;;;;;;5.93;5.40;;;2.90;99.90;;;;;;5073215;28;20894;-65
2021/01/08 12:13:51;;;;;;;6.13;5.53;;;2.80;99.90;;;;;;5073387;28;20476;-65
2021/01/08 12:16:31;;;;;;;7.60;6.80;;;2.80;99.90;;;;;;5072960;28;20945;-65
2021/01/08 12:18:57;;;;;;;6.63;6.10;;;2.80;99.90;;;;;;5073111;28;20405;-66
2021/01/08 12:21:23;;;;;;;7.80;6.73;;;2.90;99.90;;;;;;5073275;28;20432;-65
2021/01/08 12:23:50;;;;;;;6.93;6.03;;;2.90;99.90;;;;;;5073494;28;20397;-65
2021/01/08 12:26:17;;;;;;;6.93;6.33;;;2.90;99.90;;;;;;5072809;28;20795;-65
2021/01/08 12:28:43;;;;;;;7.93;7.23;;;2.90;99.90;;;;;;5072360;28;20521;-65
2021/01/08 12:31:09;;;;;;;6.57;6.00;;;2.80;99.90;;;;;;5072664;28;20444;-67
2021/01/08 12:33:35;;;;;;;8.00;7.30;;;2.70;99.90;;;;;;5059840;28;20446;-64
2021/01/08 12:36:01;;;;;;;6.30;5.70;;;2.80;99.90;;;;;;5052709;28;20187;-64
2021/01/08 12:38:26;;;;;;;9.13;8.23;;;2.80;99.90;;;;;;5052038;28;20414;-64
2021/01/08 12:40:52;;;;;;;8.50;6.40;;;2.80;99.90;;;;;;5052872;28;20599;-64
2021/01/08 12:43:18;;;;;;;8.33;6.23;;;2.90;99.90;;;;;;5052423;28;20168;-65
2021/01/08 12:45:43;;;;;;;4.90;4.50;;;2.90;99.90;;;;;;5052603;28;20270;-65
2021/01/08 12:48:09;;;;;;;5.93;5.43;;;2.90;99.90;;;;;;5051570;28;20508;-64
2021/01/08 12:50:35;;;;;;;6.40;5.80;;;2.90;99.90;;;;;;5052532;28;20175;-64
2021/01/08 12:53:01;;;;;;;6.50;5.90;;;3.00;99.90;;;;;;5051677;28;20594;-64
2021/01/08 12:55:26;;;;;;;5.70;5.17;;;2.90;99.90;;;;;;5050757;28;20442;-65
2021/01/08 12:57:52;;;;;;;6.53;5.80;;;3.00;99.90;;;;;;5051669;28;20192;-64
2021/01/08 13:00:18;;;;;;;6.00;5.40;;;2.90;99.90;;;;;;5052151;28;20171;-66